Decoded Metar for PAPM (PORT MOLLER in AK, USA) (IATA:PML) | Meteo·Mobile Aviation Weather
aviador You're here:

PAPM Decoded Metar

PORT MOLLER in AK, USA
Report Time2018-12-10 14:56:00
UTC Time2018-12-10 15:07:46
Flight Rules lifr LIFR
Wind340° at 15 kt
W.Decomp.*RWY 32: 15.0 kt HW 1.0 kt RCW
W.Rank340° ranks 4
Current wind is above 340° avg. (11.0)
Visibility805 m
Phenomena:Snow
Freezing Fog
Clouds:Overcast 008 Hf
Ceiling800 ft
Temp-1°C (ISA -16)
Dew Point-1°C (100% RH)
AAT-8.5°C
QNH968 hPa
Density Alt-295 ft
Elevation16 ft
Report Wrong Elevation
Raw Report
PAPM 101456Z AUTO 34015KT 1/2SM SN FZFG OVC008 M01/M01 A2858 RMK
AO2 CIG 004V012 SLP680 P0000 60000 T10111011 56017 FZRANO=

Extra information for PAPM:More info

Metar Taf Metar & Taf Last 4 Metars F.Rules Stats Wind Profile Meteogram Temp Stats Airport Information Weather charts Add Link Nearby VenuesMetar ALERT Operation Metar Decoded Social comments

AIRNAV info for PAPM